Time;durP1;ratioP1;P1;durP2;ratioP2;P2;SDS_P1;SDS_P2;PMS_P1;PMS_P2;Temp;Humidity;BMP_temperature;BMP_pressure;BME280_temperature;BME280_humidity;BME280_pressure;Samples;Min_cycle;Max_cycle;Signal;HPM_P1;HPM_P2
2023/04/06 00:01:17;;;;;;;18.70;11.98;;;;;;;2.32;100.00;101648.16;5231585;28;20045;-68
2023/04/06 00:03:48;;;;;;;20.83;11.52;;;;;;;2.28;100.00;101644.78;5232026;28;20048;-68
2023/04/06 00:06:19;;;;;;;19.23;12.13;;;;;;;2.30;100.00;101642.06;5234200;28;20029;-68
2023/04/06 00:08:51;;;;;;;18.85;11.85;;;;;;;2.27;100.00;101644.81;5227369;28;20033;-68
2023/04/06 00:11:22;;;;;;;17.23;10.98;;;;;;;2.22;100.00;101638.81;5227540;28;20107;-68
2023/04/06 00:13:54;;;;;;;20.27;12.13;;;;;;;2.23;100.00;101632.66;5229021;28;20029;-68
2023/04/06 00:16:25;;;;;;;18.48;10.55;;;;;;;2.19;100.00;101638.88;5239977;28;20025;-68
2023/04/06 00:18:57;;;;;;;17.75;11.20;;;;;;;2.28;100.00;101633.34;5223099;28;20018;-69
2023/04/06 00:21:28;;;;;;;18.15;10.95;;;;;;;2.30;100.00;101636.81;5232228;28;20030;-68
2023/04/06 00:23:59;;;;;;;18.15;10.50;;;;;;;2.21;100.00;101630.06;5227190;28;20025;-68
2023/04/06 00:26:31;;;;;;;16.98;11.13;;;;;;;2.24;100.00;101629.09;5224634;28;20561;-68
2023/04/06 00:29:02;;;;;;;19.95;10.98;;;;;;;2.27;100.00;101619.34;5223613;28;20025;-68
2023/04/06 00:31:34;;;;;;;19.17;11.07;;;;;;;2.21;100.00;101616.03;5224614;28;20305;-68
2023/04/06 00:34:06;;;;;;;16.73;10.32;;;;;;;2.23;100.00;101622.13;5222854;28;20028;-68
2023/04/06 00:36:37;;;;;;;17.83;10.68;;;;;;;2.17;100.00;101620.53;5225735;28;20037;-68
2023/04/06 00:39:09;;;;;;;17.58;10.98;;;;;;;2.18;100.00;101616.97;5224957;28;20044;-68
2023/04/06 00:41:47;;;;;;;17.05;10.85;;;;;;;2.15;100.00;101611.81;5225723;28;20044;-68
2023/04/06 00:44:20;;;;;;;19.63;11.43;;;;;;;2.18;100.00;101616.13;5222535;28;20022;-68
2023/04/06 00:46:51;;;;;;;18.48;10.52;;;;;;;2.20;100.00;101604.63;5220393;28;20120;-68
2023/04/06 00:49:23;;;;;;;16.98;10.50;;;;;;;2.14;100.00;101605.66;5218665;28;20021;-68
2023/04/06 00:51:55;;;;;;;17.77;10.73;;;;;;;2.17;100.00;101602.09;5222138;28;20025;-68
2023/04/06 00:54:26;;;;;;;17.90;10.88;;;;;;;2.15;100.00;101602.13;5223580;28;20116;-68
2023/04/06 00:56:58;;;;;;;19.40;10.93;;;;;;;2.09;100.00;101594.44;5223840;28;20072;-68
2023/04/06 00:59:30;;;;;;;19.08;11.02;;;;;;;2.04;100.00;101596.31;5222860;28;20033;-68
2023/04/06 01:02:01;;;;;;;17.42;10.38;;;;;;;2.05;100.00;101592.78;5221439;28;20110;-68
2023/04/06 01:04:33;;;;;;;17.80;10.90;;;;;;;2.04;100.00;101583.16;5232536;28;20391;-68
2023/04/06 01:07:04;;;;;;;20.33;10.57;;;;;;;2.02;100.00;101590.25;5227209;28;20037;-68
2023/04/06 01:09:36;;;;;;;18.80;10.95;;;;;;;2.03;100.00;101585.81;5232469;28;20033;-68
2023/04/06 01:12:07;;;;;;;17.38;10.93;;;;;;;2.08;100.00;101589.19;5222959;28;20021;-68
2023/04/06 01:14:39;;;;;;;18.52;11.95;;;;;;;2.08;100.00;101578.66;5223091;28;20033;-68
2023/04/06 01:17:10;;;;;;;21.05;11.57;;;;;;;2.02;100.00;101571.81;5230828;28;20052;-68
2023/04/06 01:19:42;;;;;;;20.73;11.90;;;;;;;2.07;100.00;101572.56;5229224;28;20085;-68
2023/04/06 01:22:16;;;;;;;17.75;11.35;;;;;;;2.05;100.00;101573.47;5218863;28;20036;-68
2023/04/06 01:24:48;;;;;;;19.38;11.20;;;;;;;2.05;100.00;101584.00;5237053;28;20065;-68
2023/04/06 01:27:19;;;;;;;19.50;11.93;;;;;;;2.07;100.00;101571.66;5227978;28;20033;-68
2023/04/06 01:29:50;;;;;;;20.50;11.77;;;;;;;2.07;100.00;101566.41;5224308;28;20025;-68
2023/04/06 01:32:22;;;;;;;20.45;12.80;;;;;;;2.11;100.00;101570.66;5221897;28;20494;-68
2023/04/06 01:34:54;;;;;;;24.88;13.68;;;;;;;2.07;100.00;101569.91;5221435;28;20058;-68
2023/04/06 01:37:26;;;;;;;19.27;12.43;;;;;;;2.11;100.00;101568.03;5220730;28;20391;-68
2023/04/06 01:39:57;;;;;;;23.63;13.63;;;;;;;2.16;100.00;101564.34;5231743;28;20083;-68
2023/04/06 01:42:30;;;;;;;21.73;13.52;;;;;;;2.20;100.00;101569.53;5229638;28;20033;-68
2023/04/06 01:45:01;;;;;;;20.42;12.27;;;;;;;2.12;100.00;101557.47;5226032;28;20040;-68
2023/04/06 01:47:33;;;;;;;22.50;13.18;;;;;;;2.19;100.00;101558.16;5228554;28;20225;-68
2023/04/06 01:50:06;;;;;;;24.55;14.88;;;;;;;2.23;100.00;101551.88;5231355;28;20040;-68
2023/04/06 01:52:37;;;;;;;24.67;14.07;;;;;;;2.23;100.00;101551.03;5223741;28;20037;-68
2023/04/06 01:55:09;;;;;;;24.73;13.65;;;;;;;2.35;100.00;101548.88;5221033;28;20022;-68
2023/04/06 01:57:40;;;;;;;21.92;13.05;;;;;;;2.31;100.00;101549.88;5220250;28;20557;-68
2023/04/06 02:00:12;;;;;;;22.25;14.13;;;;;;;2.30;100.00;101542.00;5239434;28;20046;-68
2023/04/06 02:02:44;;;;;;;22.70;13.70;;;;;;;2.36;100.00;101533.94;5222194;28;20511;-68
2023/04/06 02:05:15;;;;;;;22.92;13.40;;;;;;;2.32;100.00;101530.56;5230412;28;20495;-68
2023/04/06 02:07:46;;;;;;;22.35;13.85;;;;;;;2.39;100.00;101530.34;5234068;28;20419;-68
2023/04/06 02:10:18;;;;;;;22.45;13.88;;;;;;;2.43;100.00;101524.06;5228254;28;20033;-68
2023/04/06 02:12:50;;;;;;;24.15;14.07;;;;;;;2.45;100.00;101522.25;5230205;28;21058;-68
2023/04/06 02:15:21;;;;;;;23.92;14.00;;;;;;;2.46;100.00;101518.72;5234516;28;20034;-68
2023/04/06 02:17:53;;;;;;;22.73;14.05;;;;;;;2.45;100.00;101522.25;5234549;28;20079;-68
2023/04/06 02:20:24;;;;;;;22.27;14.93;;;;;;;2.49;100.00;101518.59;5227147;28;20067;-68
2023/04/06 02:22:58;;;;;;;23.52;13.95;;;;;;;2.51;100.00;101511.50;5227504;28;20083;-68
2023/04/06 02:25:30;;;;;;;25.65;15.57;;;;;;;2.55;100.00;101518.41;5233161;28;20039;-68
2023/04/06 02:28:01;;;;;;;20.98;13.35;;;;;;;2.53;100.00;101515.84;5227079;28;20018;-68
2023/04/06 02:30:33;;;;;;;22.45;14.70;;;;;;;2.65;100.00;101513.72;5228708;28;20021;-68
2023/04/06 02:33:04;;;;;;;21.80;14.32;;;;;;;2.59;100.00;101503.34;5231953;28;20083;-68
2023/04/06 02:35:36;;;;;;;22.85;14.77;;;;;;;2.60;100.00;101503.31;5236406;28;20061;-68
2023/04/06 02:38:07;;;;;;;26.92;15.00;;;;;;;2.63;100.00;101500.59;5235211;28;20403;-68
2023/04/06 02:40:38;;;;;;;24.13;14.93;;;;;;;2.68;100.00;101495.16;5226758;28;20630;-68
2023/04/06 02:43:10;;;;;;;20.92;13.65;;;;;;;2.69;100.00;101492.47;5222041;28;20018;-68
2023/04/06 02:45:41;;;;;;;23.40;14.93;;;;;;;2.71;100.00;101497.69;5234465;28;20029;-68
2023/04/06 02:48:13;;;;;;;23.45;15.00;;;;;;;2.74;100.00;101485.28;5230779;28;20384;-68
2023/04/06 02:50:44;;;;;;;25.48;15.32;;;;;;;2.91;100.00;101489.13;5228365;28;20473;-68
2023/04/06 02:53:16;;;;;;;24.98;15.57;;;;;;;2.84;100.00;101482.31;5227016;28;20039;-68
2023/04/06 02:55:47;;;;;;;24.27;14.90;;;;;;;2.83;100.00;101483.25;5225128;28;20131;-68
2023/04/06 02:58:18;;;;;;;23.08;15.10;;;;;;;2.88;100.00;101473.44;5220114;28;20044;-68
2023/04/06 03:00:50;;;;;;;25.02;15.35;;;;;;;2.86;100.00;101468.19;5222560;28;20049;-68
2023/04/06 03:03:21;;;;;;;28.08;16.73;;;;;;;2.89;100.00;101477.75;5227931;28;20195;-68
2023/04/06 03:05:54;;;;;;;23.35;15.25;;;;;;;2.90;100.00;101468.97;5227417;28;20033;-68
2023/04/06 03:08:25;;;;;;;24.25;15.10;;;;;;;2.97;100.00;101477.50;5227565;28;20040;-68
2023/04/06 03:10:57;;;;;;;23.50;14.68;;;;;;;2.95;100.00;101469.63;5240616;28;20395;-68
2023/04/06 03:13:28;;;;;;;25.58;15.18;;;;;;;2.99;100.00;101471.25;5228557;28;20021;-68
2023/04/06 03:16:00;;;;;;;26.33;15.68;;;;;;;3.16;100.00;101472.44;5227299;28;20032;-68
2023/04/06 03:18:32;;;;;;;27.00;16.30;;;;;;;3.02;100.00;101462.41;5226929;28;20483;-68
2023/04/06 03:21:03;;;;;;;25.80;16.17;;;;;;;3.05;100.00;101462.28;5226893;28;20032;-68
2023/04/06 03:23:35;;;;;;;25.42;16.35;;;;;;;3.04;100.00;101468.47;5230190;28;20487;-68
2023/04/06 03:26:06;;;;;;;23.73;15.40;;;;;;;3.06;100.00;101461.38;5232438;28;20029;-68
2023/04/06 03:28:38;;;;;;;26.73;15.85;;;;;;;3.06;100.00;101456.09;5226611;28;20360;-68
2023/04/06 03:31:09;;;;;;;22.38;15.75;;;;;;;3.08;100.00;101452.47;5225319;28;20040;-69
2023/04/06 03:33:41;;;;;;;24.42;16.15;;;;;;;3.09;100.00;101454.22;5227423;28;20063;-68
2023/04/06 03:36:12;;;;;;;26.50;16.60;;;;;;;3.20;100.00;101453.81;5226557;28;20372;-68
2023/04/06 03:38:44;;;;;;;24.77;16.50;;;;;;;3.13;100.00;101449.69;5228638;28;20503;-68
2023/04/06 03:41:15;;;;;;;24.30;15.73;;;;;;;3.20;100.00;101447.69;5225971;28;20037;-68
2023/04/06 03:43:47;;;;;;;26.23;16.50;;;;;;;3.15;100.00;101445.22;5224379;28;20099;-68
2023/04/06 03:46:18;;;;;;;26.95;15.95;;;;;;;3.19;100.00;101438.06;5233955;28;20029;-68
2023/04/06 03:48:50;;;;;;;24.63;15.68;;;;;;;3.16;100.00;101449.56;5228369;28;20044;-68
2023/04/06 03:51:21;;;;;;;26.35;16.30;;;;;;;3.18;100.00;101446.88;5227287;28;20041;-68
2023/04/06 03:53:53;;;;;;;24.17;16.08;;;;;;;3.17;100.00;101445.19;5225441;28;20029;-68
2023/04/06 03:56:24;;;;;;;27.45;16.25;;;;;;;3.25;100.00;101443.13;5227197;28;20455;-68
2023/04/06 03:58:56;;;;;;;27.50;16.35;;;;;;;3.23;100.00;101448.44;5225150;28;20041;-68
2023/04/06 04:01:27;;;;;;;26.55;15.75;;;;;;;3.27;100.00;101442.13;5219342;28;20064;-68
2023/04/06 04:03:59;;;;;;;25.67;16.10;;;;;;;3.22;100.00;101449.38;5219161;28;20543;-68
2023/04/06 04:06:31;;;;;;;26.17;15.98;;;;;;;3.23;100.00;101445.81;5230538;28;20404;-68
2023/04/06 04:09:02;;;;;;;26.73;15.60;;;;;;;3.25;100.00;101440.47;5229387;28;20372;-68
2023/04/06 04:11:34;;;;;;;25.20;15.70;;;;;;;3.24;100.00;101447.53;5231445;28;20553;-68
2023/04/06 04:14:05;;;;;;;26.92;16.13;;;;;;;3.22;100.00;101443.22;5229532;28;20029;-68
2023/04/06 04:16:36;;;;;;;25.40;16.45;;;;;;;3.19;100.00;101446.84;5225166;28;20037;-68
2023/04/06 04:19:08;;;;;;;24.45;15.65;;;;;;;3.19;100.00;101449.47;5222307;28;20079;-69
2023/04/06 04:21:47;;;;;;;24.33;16.02;;;;;;;3.21;100.00;101452.91;5226077;28;20399;-68
2023/04/06 04:24:18;;;;;;;24.45;15.18;;;;;;;3.16;100.00;101446.94;5225683;28;20033;-68
2023/04/06 04:26:50;;;;;;;27.10;16.73;;;;;;;3.19;100.00;101438.06;5227239;28;20029;-68
2023/04/06 04:29:22;;;;;;;24.35;15.45;;;;;;;3.20;100.00;101440.63;5223926;28;20033;-68
2023/04/06 04:31:53;;;;;;;23.15;14.48;;;;;;;3.18;100.00;101437.19;5224675;28;20032;-68
2023/04/06 04:34:25;;;;;;;23.60;15.43;;;;;;;3.18;100.00;101453.00;5222139;28;20037;-68
2023/04/06 04:36:56;;;;;;;28.20;16.42;;;;;;;3.21;100.00;101444.16;5227658;28;20029;-68
2023/04/06 04:39:28;;;;;;;23.08;14.82;;;;;;;3.20;100.00;101442.41;5225102;28;20021;-68
2023/04/06 04:41:59;;;;;;;23.23;16.00;;;;;;;3.22;100.00;101441.47;5226289;28;20053;-68
2023/04/06 04:44:30;;;;;;;28.85;15.32;;;;;;;3.27;100.00;101441.28;5224860;28;20013;-68
2023/04/06 04:47:02;;;;;;;23.30;15.32;;;;;;;3.27;100.00;101436.00;5223201;28;20038;-68
2023/04/06 04:49:33;;;;;;;25.67;15.40;;;;;;;3.29;100.00;101439.44;5226033;28;20120;-68
2023/04/06 04:52:05;;;;;;;26.92;16.23;;;;;;;3.30;100.00;101431.50;5225459;28;20376;-68
2023/04/06 04:54:37;;;;;;;30.33;16.10;;;;;;;3.31;100.00;101430.56;5225914;28;20434;-68
2023/04/06 04:57:08;;;;;;;24.17;15.38;;;;;;;3.33;100.00;101426.09;5233286;28;20384;-68
2023/04/06 04:59:39;;;;;;;25.33;16.17;;;;;;;3.45;100.00;101430.06;5222698;28;20567;-68
2023/04/06 05:02:11;;;;;;;22.67;14.88;;;;;;;3.40;100.00;101425.88;5222930;28;20036;-68
2023/04/06 05:04:42;;;;;;;23.63;15.18;;;;;;;3.40;100.00;101423.25;5226801;28;20037;-68
2023/04/06 05:07:15;;;;;;;25.23;15.60;;;;;;;3.42;100.00;101429.31;5224891;28;20033;-68
2023/04/06 05:09:47;;;;;;;24.88;14.80;;;;;;;3.44;100.00;101428.34;5224781;28;20028;-68
2023/04/06 05:12:19;;;;;;;23.35;15.45;;;;;;;3.51;100.00;101429.81;5228281;28;20021;-68
2023/04/06 05:14:50;;;;;;;25.50;15.02;;;;;;;3.53;100.00;101432.41;5220329;28;20083;-68
2023/04/06 05:17:22;;;;;;;22.15;14.77;;;;;;;3.48;100.00;101429.94;5220163;28;20025;-68
2023/04/06 05:19:54;;;;;;;24.92;15.60;;;;;;;3.50;100.00;101427.25;5219917;28;20033;-68
2023/04/06 05:22:26;;;;;;;26.10;15.90;;;;;;;3.51;100.00;101427.19;5221201;28;20033;-68
2023/04/06 05:24:57;;;;;;;25.50;15.63;;;;;;;3.53;100.00;101430.63;5224790;28;20041;-68
2023/04/06 05:27:28;;;;;;;24.23;15.02;;;;;;;3.58;100.00;101432.22;5228410;28;20021;-68
2023/04/06 05:30:00;;;;;;;30.33;15.57;;;;;;;3.61;100.00;101437.41;5236813;28;20444;-68
2023/04/06 05:32:32;;;;;;;27.95;15.50;;;;;;;3.62;100.00;101432.03;5230034;28;20071;-68
2023/04/06 05:35:03;;;;;;;24.98;15.43;;;;;;;3.69;100.00;101430.03;5228858;28;20104;-68
2023/04/06 05:37:35;;;;;;;23.20;14.90;;;;;;;3.68;100.00;101434.47;5226975;28;20440;-68
2023/04/06 05:40:08;;;;;;;25.35;15.65;;;;;;;3.72;100.00;101429.91;5234167;28;20201;-68
2023/04/06 05:42:42;;;;;;;26.83;15.57;;;;;;;3.77;100.00;101435.03;5225541;28;20112;-68
2023/04/06 05:45:16;;;;;;;25.05;14.80;;;;;;;3.80;100.00;101432.28;5233158;28;20032;-68
2023/04/06 05:47:47;;;;;;;30.70;16.10;;;;;;;3.85;100.00;101425.88;5233812;28;20028;-68
2023/04/06 05:50:19;;;;;;;31.08;15.15;;;;;;;3.83;100.00;101411.03;5228637;28;20448;-68
2023/04/06 05:52:50;;;;;;;26.45;16.10;;;;;;;3.92;100.00;101430.00;5240919;28;20025;-68
2023/04/06 05:55:22;;;;;;;24.63;15.05;;;;;;;3.93;100.00;101415.91;5236161;28;20365;-69
2023/04/06 05:57:53;;;;;;;26.95;15.75;;;;;;;4.04;100.00;101423.38;5233589;28;20036;-68
2023/04/06 06:00:26;;;;;;;25.13;15.52;;;;;;;4.04;100.00;101422.53;5243059;28;20575;-68
2023/04/06 06:02:57;;;;;;;24.40;14.57;;;;;;;4.09;100.00;101426.69;5234924;28;20034;-68
2023/04/06 06:05:28;;;;;;;23.15;14.45;;;;;;;4.13;100.00;101417.72;5228783;28;20399;-68
2023/04/06 06:08:01;;;;;;;23.35;15.15;;;;;;;4.18;100.00;101425.47;5226965;28;20038;-68
2023/04/06 06:10:33;;;;;;;24.33;14.98;;;;;;;4.23;100.00;101436.69;5235674;28;20052;-68
2023/04/06 06:13:04;;;;;;;25.48;15.20;;;;;;;4.25;100.00;101437.50;5235412;28;20052;-68
2023/04/06 06:15:36;;;;;;;24.30;14.52;;;;;;;4.31;100.00;101431.09;5230290;28;20757;-68
2023/04/06 06:18:07;;;;;;;25.75;14.27;;;;;;;4.35;100.00;101426.56;5225049;28;20032;-68
2023/04/06 06:20:38;;;;;;;25.98;15.25;;;;;;;4.44;100.00;101426.19;5225905;28;20033;-68
2023/04/06 06:23:10;;;;;;;28.73;15.68;;;;;;;4.50;100.00;101424.13;5234191;28;20110;-69
2023/04/06 06:25:42;;;;;;;23.98;14.90;;;;;;;4.49;100.00;101427.72;5229926;28;20471;-68
2023/04/06 06:28:13;;;;;;;26.73;16.23;;;;;;;4.58;100.00;101425.59;5233524;28;20361;-68
2023/04/06 06:30:45;;;;;;;23.42;14.45;;;;;;;4.61;100.00;101430.78;5238926;28;20068;-68
2023/04/06 06:33:16;;;;;;;23.75;14.55;;;;;;;4.65;100.00;101432.34;5233099;28;20076;-68
2023/04/06 06:35:48;;;;;;;23.73;15.73;;;;;;;4.68;100.00;101424.31;5240376;28;20435;-68
2023/04/06 06:38:20;;;;;;;23.13;14.55;;;;;;;4.70;100.00;101431.25;5232338;28;20036;-68
2023/04/06 06:40:52;;;;;;;23.17;15.25;;;;;;;4.76;100.00;101438.03;5228304;28;20025;-68
2023/04/06 06:43:23;;;;;;;25.48;14.45;;;;;;;4.81;100.00;101441.34;5232154;28;20446;-68
2023/04/06 06:45:55;;;;;;;23.77;15.25;;;;;;;4.83;100.00;101433.34;5234766;28;20061;-68
2023/04/06 06:48:26;;;;;;;23.45;14.40;;;;;;;4.83;100.00;101430.69;5230430;28;20095;-68
2023/04/06 06:50:58;;;;;;;27.35;14.82;;;;;;;4.85;100.00;101427.09;5225664;28;20037;-68
2023/04/06 06:53:29;;;;;;;24.00;14.30;;;;;;;4.87;100.00;101430.53;5234193;28;20399;-68
2023/04/06 06:56:01;;;;;;;24.80;15.68;;;;;;;4.90;100.00;101427.72;5237499;28;20777;-68
2023/04/06 06:58:32;;;;;;;24.92;14.93;;;;;;;4.98;100.00;101431.81;5225419;28;20028;-68
2023/04/06 07:01:04;;;;;;;23.75;14.73;;;;;;;4.99;100.00;101434.41;5232719;28;20125;-68
2023/04/06 07:03:36;;;;;;;23.23;14.60;;;;;;;5.08;100.00;101430.47;5231708;28;20430;-68
2023/04/06 07:06:07;;;;;;;32.22;22.30;;;;;;;5.12;100.00;101424.16;5233979;28;20048;-68
2023/04/06 07:08:39;;;;;;;33.30;23.30;;;;;;;5.11;100.00;101427.72;5234580;28;20029;-68
2023/04/06 07:11:10;;;;;;;28.60;19.25;;;;;;;5.19;100.00;101422.94;5235662;28;20490;-68
2023/04/06 07:13:42;;;;;;;29.17;16.42;;;;;;;5.22;100.00;101425.47;5232010;28;20040;-68
2023/04/06 07:16:13;;;;;;;25.73;16.10;;;;;;;5.26;100.00;101423.53;5234589;28;20119;-68
2023/04/06 07:18:45;;;;;;;21.48;14.52;;;;;;;5.27;100.00;101415.53;5235600;28;20033;-68
2023/04/06 07:21:16;;;;;;;25.10;14.98;;;;;;;5.30;100.00;101425.09;5234910;28;20033;-68
2023/04/06 07:23:48;;;;;;;21.75;14.68;;;;;;;5.38;100.00;101422.13;5236913;28;20053;-67
2023/04/06 07:26:19;;;;;;;23.60;14.40;;;;;;;5.43;100.00;101423.63;5239343;28;20032;-68
2023/04/06 07:28:51;;;;;;;25.77;15.88;;;;;;;5.42;100.00;101419.25;5241756;28;20021;-68
2023/04/06 07:31:22;;;;;;;24.80;14.10;;;;;;;5.48;100.00;101419.00;5231921;28;20120;-68
2023/04/06 07:33:54;;;;;;;23.10;14.77;;;;;;;5.55;100.00;101421.34;5244711;28;20395;-67
2023/04/06 07:36:25;;;;;;;25.17;15.23;;;;;;;5.61;100.00;101415.75;5238431;28;20391;-68
2023/04/06 07:38:57;;;;;;;22.70;15.27;;;;;;;5.68;100.00;101417.19;5234810;28;20025;-68
2023/04/06 07:41:28;;;;;;;24.98;14.50;;;;;;;5.71;100.00;101417.03;5231770;28;20017;-68
2023/04/06 07:44:00;;;;;;;25.48;14.68;;;;;;;5.76;100.00;101416.84;5242120;28;20033;-68
2023/04/06 07:46:31;;;;;;;21.67;14.85;;;;;;;5.82;100.00;101411.25;5230885;28;20112;-68
2023/04/06 07:49:03;;;;;;;23.55;15.13;;;;;;;5.89;100.00;101415.31;5234999;28;20561;-68
2023/04/06 07:51:38;;;;;;;25.65;16.08;;;;;;;5.94;100.00;101420.38;5229996;28;20058;-68
2023/04/06 07:54:09;;;;;;;23.17;15.23;;;;;;;5.95;100.00;101415.06;5229888;28;20033;-68
2023/04/06 07:56:41;;;;;;;22.30;14.70;;;;;;;6.01;100.00;101411.25;5250084;28;20392;-68
2023/04/06 07:59:13;;;;;;;26.10;14.68;;;;;;;6.06;100.00;101406.59;5234956;28;20056;-68
2023/04/06 08:01:44;;;;;;;25.63;15.65;;;;;;;6.18;100.00;101413.09;5228461;28;20054;-68
2023/04/06 08:04:16;;;;;;;22.75;14.82;;;;;;;6.20;100.00;101414.72;5235367;28;20029;-68
2023/04/06 08:06:47;;;;;;;23.63;15.20;;;;;;;6.21;100.00;101415.56;5239186;28;20043;-67
2023/04/06 08:09:19;;;;;;;26.48;15.38;;;;;;;6.27;100.00;101420.56;5235889;28;20025;-68
2023/04/06 08:11:50;;;;;;;23.98;15.98;;;;;;;6.44;100.00;101403.84;5228017;28;20022;-68
2023/04/06 08:14:22;;;;;;;22.30;14.10;;;;;;;6.42;100.00;101413.66;5229470;28;20025;-68
2023/04/06 08:16:53;;;;;;;26.58;16.88;;;;;;;6.48;100.00;101411.56;5231076;28;20030;-68
2023/04/06 08:19:25;;;;;;;33.97;21.92;;;;;;;6.55;100.00;101414.75;5235089;28;20025;-68
2023/04/06 08:21:56;;;;;;;28.50;16.73;;;;;;;6.64;100.00;101414.28;5238451;28;20104;-67
2023/04/06 08:24:27;;;;;;;24.52;16.10;;;;;;;6.68;100.00;101409.69;5232595;28;20027;-68
2023/04/06 08:26:59;;;;;;;23.70;15.15;;;;;;;6.81;100.00;101412.59;5238118;28;20048;-68
2023/04/06 08:29:30;;;;;;;27.80;15.35;;;;;;;6.83;100.00;101416.88;5237705;28;20045;-68
2023/04/06 08:32:04;;;;;;;23.38;14.63;;;;;;;6.84;100.00;101420.38;5234270;28;20065;-68
2023/04/06 08:34:36;;;;;;;23.48;14.57;;;;;;;6.97;100.00;101418.78;5235743;28;20037;-68
2023/04/06 08:37:07;;;;;;;25.02;14.82;;;;;;;7.05;100.00;101424.53;5245534;28;20466;-68
2023/04/06 08:39:39;;;;;;;23.00;14.65;;;;;;;7.04;100.00;101424.66;5232296;28;20129;-68
2023/04/06 08:42:16;;;;;;;22.95;15.18;;;;;;;7.13;100.00;101425.94;5235735;28;20033;-68
2023/04/06 08:44:52;;;;;;;21.90;14.95;;;;;;;7.13;100.00;101425.94;5243302;28;20028;-67
2023/04/06 08:47:23;;;;;;;22.50;15.30;;;;;;;7.16;100.00;101421.34;5232259;28;20072;-68
2023/04/06 08:49:56;;;;;;;23.65;14.38;;;;;;;7.25;100.00;101420.84;5236378;28;20030;-68
2023/04/06 08:52:29;;;;;;;21.63;14.95;;;;;;;7.26;100.00;101427.88;5236062;28;20033;-68
2023/04/06 08:55:00;;;;;;;25.27;15.23;;;;;;;7.33;100.00;101425.75;5236023;28;20025;-68
2023/04/06 08:57:32;;;;;;;22.35;15.35;;;;;;;7.36;100.00;101425.56;5232605;28;20032;-67
2023/04/06 09:00:05;;;;;;;24.35;15.13;;;;;;;7.44;100.00;101418.06;5225448;28;20419;-68
2023/04/06 09:02:40;;;;;;;24.48;15.23;;;;;;;7.52;100.00;101422.97;5225710;28;20035;-69
2023/04/06 09:05:12;;;;;;;26.35;16.02;;;;;;;7.63;100.00;101427.66;5241828;28;20392;-67
2023/04/06 09:07:45;;;;;;;22.92;15.32;;;;;;;7.68;100.00;101432.75;5240966;28;20490;-67
2023/04/06 09:10:17;;;;;;;23.95;16.13;;;;;;;7.82;100.00;101424.88;5230482;28;20029;-68
2023/04/06 09:12:48;;;;;;;24.95;15.82;;;;;;;7.89;100.00;101426.25;5234469;28;20025;-67
2023/04/06 09:15:21;;;;;;;25.58;15.75;;;;;;;8.01;100.00;101430.00;5245290;28;20040;-68
2023/04/06 09:17:54;;;;;;;25.23;16.88;;;;;;;8.05;100.00;101434.19;5234443;28;20021;-68
2023/04/06 09:20:27;;;;;;;24.67;15.55;;;;;;;8.03;100.00;101434.31;5234169;28;20112;-67
2023/04/06 09:22:59;;;;;;;26.52;16.77;;;;;;;8.16;100.00;101431.78;5236261;28;20033;-67
2023/04/06 09:25:32;;;;;;;25.95;17.17;;;;;;;8.16;100.00;101428.28;5238049;28;20029;-67
2023/04/06 09:28:04;;;;;;;24.20;15.65;;;;;;;8.19;100.00;101433.44;5231041;28;20144;-67
2023/04/06 09:30:35;;;;;;;24.27;16.13;;;;;;;8.25;100.00;101430.44;5229022;28;20107;-67
2023/04/06 09:33:07;;;;;;;20.60;15.07;;;;;;;8.24;100.00;101428.69;5231555;28;20484;-67
2023/04/06 09:35:38;;;;;;;23.40;15.68;;;;;;;8.29;100.00;101423.97;5231874;28;20426;-67
2023/04/06 09:38:13;;;;;;;22.80;14.38;;;;;;;8.32;100.00;101429.13;5231917;28;20427;-68
2023/04/06 09:40:51;;;;;;;;;;;;;;;8.43;100.00;101431.19;5231208;28;20042;-67
2023/04/06 09:43:29;;;;;;;20.05;13.63;;;;;;;8.43;100.00;101426.72;5245875;28;19996;-67
2023/04/06 09:46:03;;;;;;;23.38;13.63;;;;;;;8.51;100.00;101428.09;5220454;28;20164;-66
2023/04/06 09:48:35;;;;;;;18.43;13.03;;;;;;;8.50;100.00;101423.72;5233375;28;20029;-65
2023/04/06 09:51:11;;;;;;;19.88;12.82;;;;;;;8.49;100.00;101427.31;5232905;28;20062;-67
2023/04/06 09:53:47;;;;;;;19.98;12.63;;;;;;;8.49;100.00;101428.16;5225907;28;20114;-67
2023/04/06 09:56:23;;;;;;;18.27;12.48;;;;;;;8.49;100.00;101427.31;5228065;28;20094;-68
2023/04/06 09:59:01;;;;;;;19.58;12.52;;;;;;;8.52;100.00;101429.81;5232700;28;20570;-67
2023/04/06 10:01:35;;;;;;;17.95;13.07;;;;;;;8.50;100.00;101427.22;5228791;28;20829;-68
2023/04/06 10:04:07;;;;;;;17.13;12.15;;;;;;;8.52;100.00;101429.81;5231284;28;20039;-67
2023/04/06 10:06:39;;;;;;;16.77;11.50;;;;;;;8.49;100.00;101424.66;5234387;28;20041;-68
2023/04/06 10:09:12;;;;;;;17.63;11.30;;;;;;;8.50;100.00;101423.72;5225080;28;20030;-68
2023/04/06 10:11:45;;;;;;;19.07;11.70;;;;;;;8.49;100.00;101428.16;5227856;28;20084;-68
2023/04/06 10:14:17;;;;;;;19.58;11.98;;;;;;;8.55;100.00;101433.16;5231170;28;20102;-68
2023/04/06 10:16:49;;;;;;;16.58;11.05;;;;;;;8.53;100.00;101427.03;5227601;28;20434;-67
2023/04/06 10:19:28;;;;;;;18.90;12.13;;;;;;;8.55;100.00;101426.94;5231112;28;20109;-67
2023/04/06 10:22:02;;;;;;;16.73;10.65;;;;;;;8.57;100.00;101430.38;5231036;28;20103;-67
2023/04/06 10:24:35;;;;;;;18.50;12.88;;;;;;;8.58;100.00;101434.75;5230591;28;20033;-67
2023/04/06 10:27:09;;;;;;;17.27;10.95;;;;;;;8.60;100.00;101432.88;5237809;28;20464;-67
2023/04/06 10:29:51;;;;;;;15.75;10.85;;;;;;;8.60;100.00;101422.22;5231515;28;20083;-67
2023/04/06 10:32:36;;;;;;;17.30;11.25;;;;;;;8.58;100.00;101438.28;5227372;28;20028;-68
2023/04/06 10:35:08;;;;;;;;;;;;;;;8.68;100.00;101438.59;5233351;28;20041;-68
2023/04/06 10:38:02;;;;;;;15.40;10.43;;;;;;;8.60;100.00;101438.19;5222612;28;19917;-67
2023/04/06 10:40:38;;;;;;;16.30;10.93;;;;;;;8.55;100.00;101433.16;5235064;28;20033;-67
2023/04/06 10:43:20;;;;;;;15.50;10.10;;;;;;;8.51;100.00;101428.09;5232641;28;20517;-66
2023/04/06 10:45:56;;;;;;;17.88;10.32;;;;;;;8.54;100.00;101428.75;5230626;28;20100;-67
2023/04/06 10:48:42;;;;;;;14.68;9.32;;;;;;;8.53;100.00;101431.50;5247998;28;20037;-67
2023/04/06 10:51:16;;;;;;;15.85;10.23;;;;;;;8.50;100.00;101426.38;5233162;28;20127;-67
2023/04/06 10:53:48;;;;;;;15.63;9.85;;;;;;;8.48;100.00;101423.81;5235514;28;20033;-67
2023/04/06 10:56:25;;;;;;;13.88;9.52;;;;;;;8.48;100.00;101425.63;5237590;28;20415;-66
2023/04/06 10:58:56;;;;;;;14.88;8.98;;;;;;;8.51;100.00;101417.44;5228008;28;20041;-67
2023/04/06 11:01:28;;;;;;;15.25;9.38;;;;;;;8.49;100.00;101422.00;5233827;28;20408;-67
2023/04/06 11:03:59;;;;;;;14.45;8.88;;;;;;;8.46;100.00;101411.53;5236118;28;20585;-67
2023/04/06 11:06:32;;;;;;;14.63;9.32;;;;;;;8.41;100.00;101407.34;5228444;28;20029;-67
2023/04/06 11:09:03;;;;;;;12.23;8.73;;;;;;;8.38;100.00;101415.47;5238074;28;20072;-67
2023/04/06 11:11:39;;;;;;;14.27;8.82;;;;;;;8.42;100.00;101409.06;5227529;28;20116;-67
2023/04/06 11:14:10;;;;;;;13.00;8.68;;;;;;;8.35;100.00;101413.00;5232257;28;20380;-67
2023/04/06 11:16:42;;;;;;;12.05;8.25;;;;;;;8.37;100.00;101419.06;5233489;28;20036;-67
2023/04/06 11:19:13;;;;;;;14.20;8.95;;;;;;;8.34;100.00;101416.59;5234225;28;20459;-67
2023/04/06 11:21:47;;;;;;;16.20;8.95;;;;;;;8.32;100.00;101413.19;5228404;28;20033;-67
2023/04/06 11:24:21;;;;;;;13.07;8.57;;;;;;;8.29;100.00;101407.19;5240216;28;20029;-67
2023/04/06 11:26:54;;;;;;;15.80;9.57;;;;;;;8.33;100.00;101406.91;5231965;28;20038;-67
2023/04/06 11:29:28;;;;;;;13.25;9.35;;;;;;;8.38;100.00;101402.19;5235767;28;20033;-67
2023/04/06 11:32:02;;;;;;;15.05;10.77;;;;;;;8.52;100.00;101403.22;5232174;28;20111;-67